sensor_id;sensor_type;location;lat;lon;timestamp;P1;durP1;ratioP1;P2;durP2;ratioP2
78209;SDS011;67485;48.816;9.930;2023-04-01T00:00:27;2.13;;;0.50;;
78209;SDS011;67485;48.816;9.930;2023-04-01T00:02:53;0.90;;;0.47;;
78209;SDS011;67485;48.816;9.930;2023-04-01T00:05:18;1.47;;;0.50;;
78209;SDS011;67485;48.816;9.930;2023-04-01T00:07:44;2.03;;;0.60;;
78209;SDS011;67485;48.816;9.930;2023-04-01T00:10:10;2.40;;;0.70;;
78209;SDS011;67485;48.816;9.930;2023-04-01T00:12:38;1.20;;;0.60;;
78209;SDS011;67485;48.816;9.930;2023-04-01T00:15:04;3.38;;;0.50;;
78209;SDS011;67485;48.816;9.930;2023-04-01T00:17:32;2.23;;;0.70;;
78209;SDS011;67485;48.816;9.930;2023-04-01T00:19:57;1.65;;;0.50;;
78209;SDS011;67485;48.816;9.930;2023-04-01T00:22:23;3.00;;;0.60;;
78209;SDS011;67485;48.816;9.930;2023-04-01T00:24:50;2.00;;;0.50;;
78209;SDS011;67485;48.816;9.930;2023-04-01T00:27:15;2.65;;;0.80;;
78209;SDS011;67485;48.816;9.930;2023-04-01T00:29:42;2.00;;;0.60;;
78209;SDS011;67485;48.816;9.930;2023-04-01T00:32:08;2.75;;;0.73;;
78209;SDS011;67485;48.816;9.930;2023-04-01T00:34:35;2.05;;;0.65;;
78209;SDS011;67485;48.816;9.930;2023-04-01T00:37:00;2.33;;;0.60;;
78209;SDS011;67485;48.816;9.930;2023-04-01T00:39:28;1.73;;;0.60;;
78209;SDS011;67485;48.816;9.930;2023-04-01T00:41:55;2.72;;;0.60;;
78209;SDS011;67485;48.816;9.930;2023-04-01T00:46:49;1.90;;;0.60;;
78209;SDS011;67485;48.816;9.930;2023-04-01T00:49:17;3.45;;;0.70;;
78209;SDS011;67485;48.816;9.930;2023-04-01T00:51:45;4.68;;;0.80;;
78209;SDS011;67485;48.816;9.930;2023-04-01T00:54:15;3.45;;;0.70;;
78209;SDS011;67485;48.816;9.930;2023-04-01T00:56:53;2.97;;;0.70;;
78209;SDS011;67485;48.816;9.930;2023-04-01T00:59:28;3.75;;;0.65;;
78209;SDS011;67485;48.816;9.930;2023-04-01T01:01:57;4.90;;;0.70;;
78209;SDS011;67485;48.816;9.930;2023-04-01T01:07:06;3.00;;;0.50;;
78209;SDS011;67485;48.816;9.930;2023-04-01T01:10:16;1.55;;;0.60;;
78209;SDS011;67485;48.816;9.930;2023-04-01T01:17:58;3.00;;;0.60;;
78209;SDS011;67485;48.816;9.930;2023-04-01T01:20:34;2.45;;;0.60;;
78209;SDS011;67485;48.816;9.930;2023-04-01T01:31:25;1.87;;;0.50;;
78209;SDS011;67485;48.816;9.930;2023-04-01T01:37:03;1.98;;;0.60;;
78209;SDS011;67485;48.816;9.930;2023-04-01T01:39:35;2.97;;;0.50;;
78209;SDS011;67485;48.816;9.930;2023-04-01T01:42:03;2.75;;;0.55;;
78209;SDS011;67485;48.816;9.930;2023-04-01T01:44:31;2.17;;;0.53;;
78209;SDS011;67485;48.816;9.930;2023-04-01T01:46:59;1.63;;;0.45;;
78209;SDS011;67485;48.816;9.930;2023-04-01T01:49:27;2.42;;;0.60;;
78209;SDS011;67485;48.816;9.930;2023-04-01T01:51:55;1.98;;;0.50;;
78209;SDS011;67485;48.816;9.930;2023-04-01T01:54:22;1.30;;;0.50;;
78209;SDS011;67485;48.816;9.930;2023-04-01T01:56:49;1.87;;;0.60;;
78209;SDS011;67485;48.816;9.930;2023-04-01T01:59:30;2.08;;;0.63;;
78209;SDS011;67485;48.816;9.930;2023-04-01T02:01:58;3.45;;;0.70;;
78209;SDS011;67485;48.816;9.930;2023-04-01T02:04:25;2.55;;;0.85;;
78209;SDS011;67485;48.816;9.930;2023-04-01T02:06:56;2.63;;;0.60;;
78209;SDS011;67485;48.816;9.930;2023-04-01T02:09:27;2.07;;;0.50;;
78209;SDS011;67485;48.816;9.930;2023-04-01T02:11:59;1.42;;;0.57;;
78209;SDS011;67485;48.816;9.930;2023-04-01T02:17:34;2.15;;;0.50;;
78209;SDS011;67485;48.816;9.930;2023-04-01T02:20:09;2.83;;;0.60;;
78209;SDS011;67485;48.816;9.930;2023-04-01T02:22:42;2.83;;;0.50;;
78209;SDS011;67485;48.816;9.930;2023-04-01T02:25:14;1.77;;;0.50;;
78209;SDS011;67485;48.816;9.930;2023-04-01T02:27:43;1.70;;;0.50;;
78209;SDS011;67485;48.816;9.930;2023-04-01T02:30:11;3.08;;;0.70;;
78209;SDS011;67485;48.816;9.930;2023-04-01T02:32:39;2.80;;;0.65;;
78209;SDS011;67485;48.816;9.930;2023-04-01T02:35:12;2.83;;;0.80;;
78209;SDS011;67485;48.816;9.930;2023-04-01T02:37:39;1.10;;;0.50;;
78209;SDS011;67485;48.816;9.930;2023-04-01T02:40:10;2.55;;;0.50;;
78209;SDS011;67485;48.816;9.930;2023-04-01T02:42:38;1.90;;;0.50;;
78209;SDS011;67485;48.816;9.930;2023-04-01T02:45:05;1.65;;;0.50;;
78209;SDS011;67485;48.816;9.930;2023-04-01T02:47:31;1.77;;;0.50;;
78209;SDS011;67485;48.816;9.930;2023-04-01T02:49:57;3.60;;;0.50;;
78209;SDS011;67485;48.816;9.930;2023-04-01T02:52:26;2.13;;;0.60;;
78209;SDS011;67485;48.816;9.930;2023-04-01T02:54:54;1.47;;;0.60;;
78209;SDS011;67485;48.816;9.930;2023-04-01T02:57:20;1.23;;;0.50;;
78209;SDS011;67485;48.816;9.930;2023-04-01T02:59:46;1.23;;;0.43;;
78209;SDS011;67485;48.816;9.930;2023-04-01T03:02:12;1.13;;;0.50;;
78209;SDS011;67485;48.816;9.930;2023-04-01T03:04:38;2.42;;;0.40;;
78209;SDS011;67485;48.816;9.930;2023-04-01T03:07:04;0.90;;;0.40;;
78209;SDS011;67485;48.816;9.930;2023-04-01T03:09:30;1.53;;;0.50;;
78209;SDS011;67485;48.816;9.930;2023-04-01T03:11:56;0.70;;;0.40;;
78209;SDS011;67485;48.816;9.930;2023-04-01T03:14:21;1.42;;;0.40;;
78209;SDS011;67485;48.816;9.930;2023-04-01T03:16:47;0.70;;;0.40;;
78209;SDS011;67485;48.816;9.930;2023-04-01T03:19:13;1.17;;;0.40;;
78209;SDS011;67485;48.816;9.930;2023-04-01T03:21:39;1.37;;;0.50;;
78209;SDS011;67485;48.816;9.930;2023-04-01T03:24:04;1.85;;;0.60;;
78209;SDS011;67485;48.816;9.930;2023-04-01T03:26:31;1.20;;;0.50;;
78209;SDS011;67485;48.816;9.930;2023-04-01T03:28:57;2.67;;;0.57;;
78209;SDS011;67485;48.816;9.930;2023-04-01T03:31:23;1.88;;;0.50;;
78209;SDS011;67485;48.816;9.930;2023-04-01T03:33:53;1.10;;;0.45;;
78209;SDS011;67485;48.816;9.930;2023-04-01T03:36:19;1.23;;;0.40;;
78209;SDS011;67485;48.816;9.930;2023-04-01T03:38:46;1.17;;;0.40;;
78209;SDS011;67485;48.816;9.930;2023-04-01T03:41:16;1.17;;;0.55;;
78209;SDS011;67485;48.816;9.930;2023-04-01T03:43:42;3.33;;;0.50;;
78209;SDS011;67485;48.816;9.930;2023-04-01T03:46:09;1.40;;;0.40;;
78209;SDS011;67485;48.816;9.930;2023-04-01T03:48:35;1.00;;;0.40;;
78209;SDS011;67485;48.816;9.930;2023-04-01T03:51:01;2.25;;;0.50;;
78209;SDS011;67485;48.816;9.930;2023-04-01T03:53:31;1.10;;;0.50;;
78209;SDS011;67485;48.816;9.930;2023-04-01T03:56:03;2.95;;;0.50;;
78209;SDS011;67485;48.816;9.930;2023-04-01T03:58:29;1.73;;;0.50;;
78209;SDS011;67485;48.816;9.930;2023-04-01T04:00:55;0.90;;;0.47;;
78209;SDS011;67485;48.816;9.930;2023-04-01T04:03:21;1.83;;;0.50;;
78209;SDS011;67485;48.816;9.930;2023-04-01T04:05:47;3.63;;;0.50;;
78209;SDS011;67485;48.816;9.930;2023-04-01T04:08:15;2.42;;;0.80;;
78209;SDS011;67485;48.816;9.930;2023-04-01T04:10:41;2.22;;;0.50;;
78209;SDS011;67485;48.816;9.930;2023-04-01T04:13:08;1.25;;;0.50;;
78209;SDS011;67485;48.816;9.930;2023-04-01T04:15:38;1.77;;;0.50;;
78209;SDS011;67485;48.816;9.930;2023-04-01T04:18:05;1.67;;;0.50;;
78209;SDS011;67485;48.816;9.930;2023-04-01T04:20:31;1.00;;;0.50;;
78209;SDS011;67485;48.816;9.930;2023-04-01T04:22:57;1.07;;;0.40;;
78209;SDS011;67485;48.816;9.930;2023-04-01T04:25:22;2.50;;;0.40;;
78209;SDS011;67485;48.816;9.930;2023-04-01T04:27:48;2.87;;;0.50;;
78209;SDS011;67485;48.816;9.930;2023-04-01T04:30:15;1.05;;;0.40;;
78209;SDS011;67485;48.816;9.930;2023-04-01T04:32:40;1.25;;;0.47;;
78209;SDS011;67485;48.816;9.930;2023-04-01T04:35:07;1.67;;;0.50;;
78209;SDS011;67485;48.816;9.930;2023-04-01T04:37:34;1.10;;;0.40;;
78209;SDS011;67485;48.816;9.930;2023-04-01T04:39:59;2.42;;;0.50;;
78209;SDS011;67485;48.816;9.930;2023-04-01T04:42:25;1.10;;;0.40;;
78209;SDS011;67485;48.816;9.930;2023-04-01T04:44:56;1.67;;;0.40;;
78209;SDS011;67485;48.816;9.930;2023-04-01T04:47:21;1.10;;;0.40;;
78209;SDS011;67485;48.816;9.930;2023-04-01T04:49:47;1.53;;;0.50;;
78209;SDS011;67485;48.816;9.930;2023-04-01T04:52:13;1.35;;;0.40;;
78209;SDS011;67485;48.816;9.930;2023-04-01T04:54:38;1.00;;;0.50;;
78209;SDS011;67485;48.816;9.930;2023-04-01T04:57:04;0.80;;;0.50;;
78209;SDS011;67485;48.816;9.930;2023-04-01T04:59:35;1.98;;;0.60;;
78209;SDS011;67485;48.816;9.930;2023-04-01T05:02:09;1.17;;;0.50;;
78209;SDS011;67485;48.816;9.930;2023-04-01T05:04:36;1.75;;;0.50;;
78209;SDS011;67485;48.816;9.930;2023-04-01T05:07:03;1.20;;;0.57;;
78209;SDS011;67485;48.816;9.930;2023-04-01T05:09:30;1.60;;;0.50;;
78209;SDS011;67485;48.816;9.930;2023-04-01T05:11:56;1.83;;;0.40;;
78209;SDS011;67485;48.816;9.930;2023-04-01T05:14:24;1.88;;;0.60;;
78209;SDS011;67485;48.816;9.930;2023-04-01T05:17:08;1.10;;;0.40;;
78209;SDS011;67485;48.816;9.930;2023-04-01T05:19:35;3.37;;;0.70;;
78209;SDS011;67485;48.816;9.930;2023-04-01T05:22:01;1.40;;;0.60;;
78209;SDS011;67485;48.816;9.930;2023-04-01T05:24:28;2.13;;;0.50;;
78209;SDS011;67485;48.816;9.930;2023-04-01T05:26:54;1.83;;;0.50;;
78209;SDS011;67485;48.816;9.930;2023-04-01T05:29:19;1.48;;;0.50;;
78209;SDS011;67485;48.816;9.930;2023-04-01T05:31:54;2.75;;;0.70;;
78209;SDS011;67485;48.816;9.930;2023-04-01T05:34:20;1.43;;;0.60;;
78209;SDS011;67485;48.816;9.930;2023-04-01T05:36:45;1.50;;;0.50;;
78209;SDS011;67485;48.816;9.930;2023-04-01T05:39:11;1.40;;;0.40;;
78209;SDS011;67485;48.816;9.930;2023-04-01T05:41:38;2.45;;;0.60;;
78209;SDS011;67485;48.816;9.930;2023-04-01T05:44:05;3.10;;;0.60;;
78209;SDS011;67485;48.816;9.930;2023-04-01T05:46:40;2.28;;;0.52;;
78209;SDS011;67485;48.816;9.930;2023-04-01T05:49:25;1.50;;;0.50;;
78209;SDS011;67485;48.816;9.930;2023-04-01T05:51:51;1.30;;;0.60;;
78209;SDS011;67485;48.816;9.930;2023-04-01T05:54:17;1.45;;;0.60;;
78209;SDS011;67485;48.816;9.930;2023-04-01T05:56:45;3.75;;;0.63;;
78209;SDS011;67485;48.816;9.930;2023-04-01T05:59:11;1.77;;;0.60;;
78209;SDS011;67485;48.816;9.930;2023-04-01T06:01:37;4.95;;;0.60;;
78209;SDS011;67485;48.816;9.930;2023-04-01T06:04:03;2.90;;;0.70;;
78209;SDS011;67485;48.816;9.930;2023-04-01T06:06:29;1.63;;;0.57;;
78209;SDS011;67485;48.816;9.930;2023-04-01T06:09:15;1.20;;;0.70;;
78209;SDS011;67485;48.816;9.930;2023-04-01T06:14:58;1.08;;;0.50;;
78209;SDS011;67485;48.816;9.930;2023-04-01T06:26:57;1.60;;;0.50;;
78209;SDS011;67485;48.816;9.930;2023-04-01T06:34:58;1.88;;;0.50;;
78209;SDS011;67485;48.816;9.930;2023-04-01T06:37:46;1.05;;;0.50;;
78209;SDS011;67485;48.816;9.930;2023-04-01T06:43:37;3.72;;;0.60;;
78209;SDS011;67485;48.816;9.930;2023-04-01T06:47:06;8.23;;;0.90;;
78209;SDS011;67485;48.816;9.930;2023-04-01T06:53:10;4.53;;;0.43;;
78209;SDS011;67485;48.816;9.930;2023-04-01T06:56:05;2.35;;;0.50;;
78209;SDS011;67485;48.816;9.930;2023-04-01T06:58:52;0.80;;;0.40;;
78209;SDS011;67485;48.816;9.930;2023-04-01T07:01:24;2.17;;;0.60;;
78209;SDS011;67485;48.816;9.930;2023-04-01T07:03:58;2.28;;;0.50;;
78209;SDS011;67485;48.816;9.930;2023-04-01T07:09:21;4.15;;;0.50;;
78209;SDS011;67485;48.816;9.930;2023-04-01T07:15:16;2.90;;;0.60;;
78209;SDS011;67485;48.816;9.930;2023-04-01T07:17:43;2.80;;;0.70;;
78209;SDS011;67485;48.816;9.930;2023-04-01T07:22:52;1.63;;;0.55;;
78209;SDS011;67485;48.816;9.930;2023-04-01T07:25:28;1.70;;;0.50;;
78209;SDS011;67485;48.816;9.930;2023-04-01T07:28:15;3.33;;;0.60;;
78209;SDS011;67485;48.816;9.930;2023-04-01T07:33:25;2.00;;;0.50;;
78209;SDS011;67485;48.816;9.930;2023-04-01T07:39:03;1.40;;;0.50;;
78209;SDS011;67485;48.816;9.930;2023-04-01T07:42:04;1.07;;;0.50;;
78209;SDS011;67485;48.816;9.930;2023-04-01T07:55:16;2.03;;;0.67;;
78209;SDS011;67485;48.816;9.930;2023-04-01T07:57:52;1.70;;;0.57;;
78209;SDS011;67485;48.816;9.930;2023-04-01T08:06:33;2.40;;;0.57;;
78209;SDS011;67485;48.816;9.930;2023-04-01T08:20:33;2.80;;;0.52;;
78209;SDS011;67485;48.816;9.930;2023-04-01T08:25:50;2.97;;;0.90;;
78209;SDS011;67485;48.816;9.930;2023-04-01T08:28:27;2.67;;;0.63;;
78209;SDS011;67485;48.816;9.930;2023-04-01T08:33:32;1.98;;;0.60;;
78209;SDS011;67485;48.816;9.930;2023-04-01T08:38:46;1.50;;;0.50;;
78209;SDS011;67485;48.816;9.930;2023-04-01T08:47:19;1.25;;;0.40;;
78209;SDS011;67485;48.816;9.930;2023-04-01T08:50:30;1.87;;;0.50;;
78209;SDS011;67485;48.816;9.930;2023-04-01T08:56:14;1.33;;;0.50;;
78209;SDS011;67485;48.816;9.930;2023-04-01T09:16:35;1.48;;;0.50;;
78209;SDS011;67485;48.816;9.930;2023-04-01T09:36:28;3.28;;;0.80;;
78209;SDS011;67485;48.816;9.930;2023-04-01T09:44:48;0.90;;;0.50;;
78209;SDS011;67485;48.816;9.930;2023-04-01T09:47:41;2.47;;;0.70;;
78209;SDS011;67485;48.816;9.930;2023-04-01T09:58:29;0.70;;;0.40;;
78209;SDS011;67485;48.816;9.930;2023-04-01T10:01:45;2.20;;;0.90;;
78209;SDS011;67485;48.816;9.930;2023-04-01T10:10:00;1.30;;;0.52;;
78209;SDS011;67485;48.816;9.930;2023-04-01T10:18:35;2.55;;;0.63;;
78209;SDS011;67485;48.816;9.930;2023-04-01T10:21:34;1.25;;;0.50;;
78209;SDS011;67485;48.816;9.930;2023-04-01T10:32:42;1.45;;;0.60;;
78209;SDS011;67485;48.816;9.930;2023-04-01T10:44:38;2.78;;;0.73;;
78209;SDS011;67485;48.816;9.930;2023-04-01T10:56:10;1.17;;;0.60;;
78209;SDS011;67485;48.816;9.930;2023-04-01T11:02:31;1.92;;;0.50;;
78209;SDS011;67485;48.816;9.930;2023-04-01T11:05:35;0.93;;;0.50;;
78209;SDS011;67485;48.816;9.930;2023-04-01T11:09:04;1.40;;;0.50;;
78209;SDS011;67485;48.816;9.930;2023-04-01T11:12:06;2.03;;;0.52;;
78209;SDS011;67485;48.816;9.930;2023-04-01T11:34:29;0.80;;;0.50;;
78209;SDS011;67485;48.816;9.930;2023-04-01T11:37:02;1.15;;;0.47;;
78209;SDS011;67485;48.816;9.930;2023-04-01T11:46:11;1.85;;;0.50;;
78209;SDS011;67485;48.816;9.930;2023-04-01T11:48:51;0.90;;;0.50;;
78209;SDS011;67485;48.816;9.930;2023-04-01T11:52:15;1.10;;;0.50;;
78209;SDS011;67485;48.816;9.930;2023-04-01T11:55:10;1.02;;;0.50;;
78209;SDS011;67485;48.816;9.930;2023-04-01T11:57:51;2.47;;;0.60;;
78209;SDS011;67485;48.816;9.930;2023-04-01T12:04:06;1.40;;;0.50;;
78209;SDS011;67485;48.816;9.930;2023-04-01T12:14:47;1.50;;;0.60;;
78209;SDS011;67485;48.816;9.930;2023-04-01T12:31:27;0.97;;;0.50;;
78209;SDS011;67485;48.816;9.930;2023-04-01T12:47:06;2.00;;;0.70;;
78209;SDS011;67485;48.816;9.930;2023-04-01T12:52:19;3.38;;;1.20;;
78209;SDS011;67485;48.816;9.930;2023-04-01T12:55:13;2.75;;;0.95;;
78209;SDS011;67485;48.816;9.930;2023-04-01T13:03:44;1.67;;;0.50;;
78209;SDS011;67485;48.816;9.930;2023-04-01T13:08:52;1.43;;;0.50;;
78209;SDS011;67485;48.816;9.930;2023-04-01T13:19:57;1.00;;;0.60;;
78209;SDS011;67485;48.816;9.930;2023-04-01T13:22:45;1.95;;;0.60;;
78209;SDS011;67485;48.816;9.930;2023-04-01T13:25:18;2.45;;;0.50;;
78209;SDS011;67485;48.816;9.930;2023-04-01T13:28:18;1.10;;;0.60;;
78209;SDS011;67485;48.816;9.930;2023-04-01T13:30:55;1.20;;;0.50;;
78209;SDS011;67485;48.816;9.930;2023-04-01T13:42:28;1.20;;;0.57;;
78209;SDS011;67485;48.816;9.930;2023-04-01T13:45:01;1.30;;;0.50;;
78209;SDS011;67485;48.816;9.930;2023-04-01T14:19:18;1.35;;;0.52;;
78209;SDS011;67485;48.816;9.930;2023-04-01T14:48:05;1.20;;;0.50;;
78209;SDS011;67485;48.816;9.930;2023-04-01T14:50:43;1.92;;;0.70;;
78209;SDS011;67485;48.816;9.930;2023-04-01T14:58:12;2.20;;;0.90;;
78209;SDS011;67485;48.816;9.930;2023-04-01T15:03:30;1.55;;;0.57;;
78209;SDS011;67485;48.816;9.930;2023-04-01T15:09:03;3.05;;;0.70;;
78209;SDS011;67485;48.816;9.930;2023-04-01T15:14:33;1.50;;;0.70;;
78209;SDS011;67485;48.816;9.930;2023-04-01T15:28:59;2.10;;;0.80;;
78209;SDS011;67485;48.816;9.930;2023-04-01T15:34:37;1.70;;;0.70;;
78209;SDS011;67485;48.816;9.930;2023-04-01T15:43:02;1.00;;;0.57;;
78209;SDS011;67485;48.816;9.930;2023-04-01T15:51:21;1.50;;;0.60;;
78209;SDS011;67485;48.816;9.930;2023-04-01T15:54:16;2.85;;;1.55;;
78209;SDS011;67485;48.816;9.930;2023-04-01T16:05:44;3.17;;;1.40;;
78209;SDS011;67485;48.816;9.930;2023-04-01T16:17:01;4.23;;;1.90;;
78209;SDS011;67485;48.816;9.930;2023-04-01T16:27:46;6.30;;;2.20;;
78209;SDS011;67485;48.816;9.930;2023-04-01T16:30:33;5.60;;;2.37;;
78209;SDS011;67485;48.816;9.930;2023-04-01T16:41:41;7.75;;;2.75;;
78209;SDS011;67485;48.816;9.930;2023-04-01T16:44:08;5.13;;;2.00;;
78209;SDS011;67485;48.816;9.930;2023-04-01T16:46:38;1.75;;;1.00;;
78209;SDS011;67485;48.816;9.930;2023-04-01T16:56:39;3.97;;;1.90;;
78209;SDS011;67485;48.816;9.930;2023-04-01T17:01:53;4.88;;;1.83;;
78209;SDS011;67485;48.816;9.930;2023-04-01T17:21:09;4.20;;;1.42;;
78209;SDS011;67485;48.816;9.930;2023-04-01T17:23:52;3.83;;;1.60;;
78209;SDS011;67485;48.816;9.930;2023-04-01T17:26:28;6.53;;;2.10;;
78209;SDS011;67485;48.816;9.930;2023-04-01T17:29:22;2.55;;;0.93;;
78209;SDS011;67485;48.816;9.930;2023-04-01T17:43:40;1.75;;;0.60;;
78209;SDS011;67485;48.816;9.930;2023-04-01T17:46:32;3.30;;;0.80;;
78209;SDS011;67485;48.816;9.930;2023-04-01T17:54:41;2.03;;;0.73;;
78209;SDS011;67485;48.816;9.930;2023-04-01T18:11:58;2.15;;;1.00;;
78209;SDS011;67485;48.816;9.930;2023-04-01T18:14:42;3.30;;;1.00;;
78209;SDS011;67485;48.816;9.930;2023-04-01T18:17:27;3.40;;;0.77;;
78209;SDS011;67485;48.816;9.930;2023-04-01T18:20:17;2.43;;;0.70;;
78209;SDS011;67485;48.816;9.930;2023-04-01T18:22:52;1.98;;;0.80;;
78209;SDS011;67485;48.816;9.930;2023-04-01T18:25:38;1.60;;;0.80;;
78209;SDS011;67485;48.816;9.930;2023-04-01T18:30:42;1.42;;;0.80;;
78209;SDS011;67485;48.816;9.930;2023-04-01T18:33:32;2.17;;;0.80;;
78209;SDS011;67485;48.816;9.930;2023-04-01T18:38:52;4.30;;;0.85;;
78209;SDS011;67485;48.816;9.930;2023-04-01T18:52:47;2.80;;;1.13;;
78209;SDS011;67485;48.816;9.930;2023-04-01T18:55:42;4.50;;;1.20;;
78209;SDS011;67485;48.816;9.930;2023-04-01T18:58:21;3.33;;;1.17;;
78209;SDS011;67485;48.816;9.930;2023-04-01T19:01:01;2.63;;;1.00;;
78209;SDS011;67485;48.816;9.930;2023-04-01T19:03:43;3.88;;;1.25;;
78209;SDS011;67485;48.816;9.930;2023-04-01T19:06:27;3.15;;;1.00;;
78209;SDS011;67485;48.816;9.930;2023-04-01T19:09:11;3.20;;;1.35;;
78209;SDS011;67485;48.816;9.930;2023-04-01T19:14:46;3.77;;;1.60;;
78209;SDS011;67485;48.816;9.930;2023-04-01T19:20:04;2.70;;;1.20;;
78209;SDS011;67485;48.816;9.930;2023-04-01T19:28:01;3.00;;;1.17;;
78209;SDS011;67485;48.816;9.930;2023-04-01T19:30:54;4.15;;;1.10;;
78209;SDS011;67485;48.816;9.930;2023-04-01T19:36:32;2.58;;;1.17;;
78209;SDS011;67485;48.816;9.930;2023-04-01T19:41:48;3.23;;;0.97;;
78209;SDS011;67485;48.816;9.930;2023-04-01T19:52:49;1.95;;;0.90;;
78209;SDS011;67485;48.816;9.930;2023-04-01T19:58:00;2.10;;;0.88;;
78209;SDS011;67485;48.816;9.930;2023-04-01T20:00:43;1.90;;;0.70;;
78209;SDS011;67485;48.816;9.930;2023-04-01T20:03:17;2.40;;;0.80;;
78209;SDS011;67485;48.816;9.930;2023-04-01T20:06:11;2.85;;;0.63;;
78209;SDS011;67485;48.816;9.930;2023-04-01T20:11:38;1.42;;;0.70;;
78209;SDS011;67485;48.816;9.930;2023-04-01T20:19:36;3.03;;;0.70;;
78209;SDS011;67485;48.816;9.930;2023-04-01T20:22:08;2.43;;;0.80;;
78209;SDS011;67485;48.816;9.930;2023-04-01T20:28:00;1.10;;;0.60;;
78209;SDS011;67485;48.816;9.930;2023-04-01T20:53:12;2.33;;;0.60;;
78209;SDS011;67485;48.816;9.930;2023-04-01T20:58:24;1.38;;;0.70;;
78209;SDS011;67485;48.816;9.930;2023-04-01T21:04:03;1.33;;;0.70;;
78209;SDS011;67485;48.816;9.930;2023-04-01T21:07:04;1.98;;;0.75;;
78209;SDS011;67485;48.816;9.930;2023-04-01T21:09:44;1.35;;;0.60;;
78209;SDS011;67485;48.816;9.930;2023-04-01T21:12:22;2.08;;;0.73;;
78209;SDS011;67485;48.816;9.930;2023-04-01T21:26:17;2.13;;;0.60;;
78209;SDS011;67485;48.816;9.930;2023-04-01T21:29:26;2.00;;;0.70;;
78209;SDS011;67485;48.816;9.930;2023-04-01T21:37:22;1.90;;;0.70;;
78209;SDS011;67485;48.816;9.930;2023-04-01T21:51:25;4.10;;;0.90;;
78209;SDS011;67485;48.816;9.930;2023-04-01T22:07:47;1.50;;;0.60;;
78209;SDS011;67485;48.816;9.930;2023-04-01T22:10:38;1.90;;;0.85;;
78209;SDS011;67485;48.816;9.930;2023-04-01T22:16:25;3.15;;;0.90;;
78209;SDS011;67485;48.816;9.930;2023-04-01T22:21:52;2.13;;;0.95;;
78209;SDS011;67485;48.816;9.930;2023-04-01T22:27:21;2.40;;;0.70;;
78209;SDS011;67485;48.816;9.930;2023-04-01T22:30:10;1.90;;;0.80;;
78209;SDS011;67485;48.816;9.930;2023-04-01T22:32:49;2.35;;;0.73;;
78209;SDS011;67485;48.816;9.930;2023-04-01T22:43:25;3.67;;;0.75;;
78209;SDS011;67485;48.816;9.930;2023-04-01T22:45:59;2.95;;;1.17;;
78209;SDS011;67485;48.816;9.930;2023-04-01T22:51:17;1.98;;;0.85;;
78209;SDS011;67485;48.816;9.930;2023-04-01T22:53:59;2.08;;;1.00;;
78209;SDS011;67485;48.816;9.930;2023-04-01T22:56:38;2.10;;;0.85;;
78209;SDS011;67485;48.816;9.930;2023-04-01T22:59:10;2.75;;;1.08;;
78209;SDS011;67485;48.816;9.930;2023-04-01T23:02:03;2.57;;;1.00;;
78209;SDS011;67485;48.816;9.930;2023-04-01T23:04:37;1.50;;;0.90;;
78209;SDS011;67485;48.816;9.930;2023-04-01T23:07:14;2.67;;;0.90;;
78209;SDS011;67485;48.816;9.930;2023-04-01T23:10:19;2.45;;;0.90;;
78209;SDS011;67485;48.816;9.930;2023-04-01T23:12:45;2.45;;;0.80;;
78209;SDS011;67485;48.816;9.930;2023-04-01T23:15:13;2.80;;;0.80;;
78209;SDS011;67485;48.816;9.930;2023-04-01T23:20:32;2.38;;;1.00;;
78209;SDS011;67485;48.816;9.930;2023-04-01T23:23:18;1.95;;;0.90;;
78209;SDS011;67485;48.816;9.930;2023-04-01T23:25:49;2.83;;;0.82;;
78209;SDS011;67485;48.816;9.930;2023-04-01T23:31:25;3.00;;;0.80;;
78209;SDS011;67485;48.816;9.930;2023-04-01T23:36:37;1.80;;;0.70;;
78209;SDS011;67485;48.816;9.930;2023-04-01T23:39:11;1.80;;;0.70;;
78209;SDS011;67485;48.816;9.930;2023-04-01T23:41:55;2.30;;;0.90;;
78209;SDS011;67485;48.816;9.930;2023-04-01T23:44:25;1.88;;;0.80;;
78209;SDS011;67485;48.816;9.930;2023-04-01T23:46:54;1.10;;;0.60;;
78209;SDS011;67485;48.816;9.930;2023-04-01T23:49:22;3.15;;;0.70;;
78209;SDS011;67485;48.816;9.930;2023-04-01T23:52:14;1.63;;;0.60;;
78209;SDS011;67485;48.816;9.930;2023-04-01T23:55:03;2.30;;;0.80;;
78209;SDS011;67485;48.816;9.930;2023-04-01T23:57:34;1.30;;;0.70;;
